Time;durP1;ratioP1;P1;durP2;ratioP2;P2;SDS_P1;SDS_P2;PMS_P1;PMS_P2;Temp;Humidity;BMP_temperature;BMP_pressure;BME280_temperature;BME280_humidity;BME280_pressure;Samples;Min_cycle;Max_cycle;Signal;HPM_P1;HPM_P2
2024/04/10 00:01:13;;;;;;;9.80;3.90;;;;;;;15.14;49.91;99689.02;79694;1292;3011485;-59
2024/04/10 00:03:41;;;;;;;11.10;3.50;;;;;;;15.12;50.02;99685.02;78410;1294;3025772;-58
2024/04/10 00:06:08;;;;;;;8.00;3.10;;;;;;;15.07;50.35;99686.69;79875;1294;3012987;-58
2024/04/10 00:08:35;;;;;;;13.60;3.80;;;;;;;15.08;49.94;99692.23;79776;1291;3011538;-58
2024/04/10 00:11:03;;;;;;;5.20;2.90;;;;;;;15.09;50.06;99691.07;78483;1291;3050289;-59
2024/04/10 00:13:30;;;;;;;12.20;3.50;;;;;;;15.06;50.23;99690.60;79758;1295;3013439;-66
2024/04/10 00:16:00;;;;;;;13.10;3.60;;;;;;;15.12;50.03;99701.11;79748;1294;3011761;-58
2024/04/10 00:18:28;;;;;;;14.50;3.20;;;;;;;15.07;49.94;99703.42;78364;1290;3051342;-58
2024/04/10 00:20:56;;;;;;;8.30;2.80;;;;;;;14.97;50.43;99702.20;79869;1292;3013605;-59
2024/04/10 00:23:23;;;;;;;7.80;2.90;;;;;;;15.02;50.26;99696.07;79688;1292;3011733;-60
2024/04/10 00:25:58;;;;;;;6.80;3.30;;;;;;;14.91;50.72;99684.52;78430;1294;3028679;-57
2024/04/10 00:28:30;;;;;;;9.60;3.40;;;;;;;14.89;50.57;99678.14;78653;1294;3052695;-59
2024/04/10 00:30:57;;;;;;;11.80;3.30;;;;;;;14.88;50.68;99675.05;79682;1291;3012880;-59
2024/04/10 00:33:25;;;;;;;8.00;2.80;;;;;;;14.87;50.43;99678.96;78472;1292;3028263;-57
2024/04/10 00:35:56;;;;;;;7.90;2.90;;;;;;;14.85;50.55;99678.98;79698;1292;3012917;-58
2024/04/10 00:38:26;;;;;;;6.60;3.20;;;;;;;14.87;50.59;99677.59;78550;1295;3049338;-57
2024/04/10 00:40:56;;;;;;;7.20;2.80;;;;;;;14.81;50.53;99672.02;79884;1291;3011589;-58
2024/04/10 00:43:24;;;;;;;5.00;2.60;;;;;;;14.74;50.95;99665.14;78641;1292;3050470;-58
2024/04/10 00:46:10;;;;;;;9.20;2.40;;;;;;;14.70;51.02;99661.03;79991;1295;3012859;-60
2024/04/10 00:48:38;;;;;;;6.40;2.60;;;;;;;14.69;50.92;99660.38;78519;1292;3069657;-59
2024/04/10 00:51:09;;;;;;;7.20;2.80;;;;;;;14.73;50.97;99660.43;79814;1294;3013326;-56
2024/04/10 00:53:37;;;;;;;6.80;3.20;;;;;;;14.71;50.92;99665.34;78590;1294;3049885;-56
2024/04/10 00:56:04;;;;;;;8.30;2.60;;;;;;;14.68;50.82;99663.48;79719;1294;3013546;-59
2024/04/10 00:58:33;;;;;;;5.90;2.80;;;;;;;14.67;50.93;99666.73;79897;1292;3011557;-58
2024/04/10 01:01:01;;;;;;;10.50;3.10;;;;;;;14.64;50.99;99660.58;78714;1294;3052668;-56
2024/04/10 01:03:30;;;;;;;6.20;3.30;;;;;;;14.65;51.20;99658.43;79747;1297;3013610;-59
2024/04/10 01:05:58;;;;;;;7.70;2.40;;;;;;;14.59;51.15;99661.99;79539;1291;3011505;-58
2024/04/10 01:08:27;;;;;;;7.60;2.60;;;;;;;14.64;51.05;99668.93;78315;1292;3048825;-59
2024/04/10 01:10:55;;;;;;;6.50;2.90;;;;;;;14.54;51.43;99671.18;79652;1292;3012933;-58
2024/04/10 01:13:21;;;;;;;7.40;3.40;;;;;;;14.48;51.72;99675.33;79527;1292;3011377;-60
2024/04/10 01:15:49;;;;;;;7.10;2.90;;;;;;;14.43;51.80;99674.63;78580;1297;3052688;-58
2024/04/10 01:18:16;;;;;;;9.50;2.70;;;;;;;14.45;51.75;99672.23;79582;1295;3013430;-59
2024/04/10 01:20:43;;;;;;;9.30;2.90;;;;;;;14.39;52.08;99672.59;79727;1292;3013176;-60
2024/04/10 01:23:10;;;;;;;13.50;3.80;;;;;;;14.44;51.77;99675.98;78537;1295;3028963;-60
2024/04/10 01:25:37;;;;;;;9.30;2.60;;;;;;;14.36;52.21;99676.94;79827;1292;3013425;-60
2024/04/10 01:28:04;;;;;;;15.10;3.00;;;;;;;14.34;52.13;99676.48;79771;1294;3011504;-57
2024/04/10 01:30:32;;;;;;;9.70;3.00;;;;;;;14.29;52.20;99673.89;78725;1295;3026084;-60
2024/04/10 01:32:58;;;;;;;7.10;3.20;;;;;;;14.30;52.40;99677.15;79626;1292;3012902;-59
2024/04/10 01:35:25;;;;;;;8.60;2.60;;;;;;;14.35;52.16;99678.70;79642;1294;3011799;-59
2024/04/10 01:37:53;;;;;;;6.80;2.60;;;;;;;14.33;52.07;99678.67;78546;1292;3026088;-58
2024/04/10 01:40:21;;;;;;;7.80;2.90;;;;;;;14.30;52.45;99683.01;79662;1292;3019257;-59
2024/04/10 01:42:48;;;;;;;6.90;2.90;;;;;;;14.25;52.82;99681.91;79796;1292;3013643;-61
2024/04/10 01:45:16;;;;;;;9.40;2.80;;;;;;;14.28;52.53;99686.30;78426;1295;3052906;-57
2024/04/10 01:47:42;;;;;;;9.00;2.80;;;;;;;14.32;52.26;99691.98;79764;1294;3018320;-59
2024/04/10 01:50:09;;;;;;;9.20;2.90;;;;;;;14.34;52.41;99690.23;79731;1291;3013485;-59
2024/04/10 01:52:37;;;;;;;8.90;2.90;;;;;;;14.35;52.40;99690.67;78229;1294;3028389;-59
2024/04/10 01:55:05;;;;;;;11.40;3.00;;;;;;;14.34;52.52;99689.55;79905;1292;3013356;-59
2024/04/10 01:57:31;;;;;;;13.70;2.90;;;;;;;14.31;52.53;99691.73;79686;1295;3013395;-59
2024/04/10 01:59:59;;;;;;;9.30;2.70;;;;;;;14.28;52.61;99692.46;78425;1295;3052709;-58
2024/04/10 02:02:26;;;;;;;6.70;2.60;;;;;;;14.28;52.66;99694.92;79721;1294;3013411;-57
2024/04/10 02:04:53;;;;;;;5.30;2.50;;;;;;;14.32;52.55;99692.15;79925;1292;3012909;-59
2024/04/10 02:07:20;;;;;;;5.10;3.00;;;;;;;14.32;52.58;99697.13;78756;1294;3025474;-59
2024/04/10 02:09:47;;;;;;;6.60;2.50;;;;;;;14.35;52.41;99696.73;79913;1295;3012661;-58
2024/04/10 02:12:14;;;;;;;6.40;2.50;;;;;;;14.37;52.42;99691.60;79609;1292;3012797;-59
2024/04/10 02:14:42;;;;;;;6.20;2.60;;;;;;;14.39;52.34;99687.27;78557;1295;3051906;-57
2024/04/10 02:17:09;;;;;;;3.30;2.50;;;;;;;14.49;52.31;99681.10;79870;1294;3012846;-58
2024/04/10 02:19:36;;;;;;;13.50;3.40;;;;;;;14.64;51.67;99681.41;79784;1294;3012674;-60
2024/04/10 02:22:05;;;;;;;9.30;2.90;;;;;;;14.77;51.46;99680.45;78820;1294;3025684;-57
2024/04/10 02:24:32;;;;;;;5.90;3.20;;;;;;;14.87;51.36;99678.80;80595;1292;3013490;-58
2024/04/10 02:26:59;;;;;;;8.20;3.10;;;;;;;14.95;51.09;99678.07;80439;1294;3011621;-59
2024/04/10 02:29:30;;;;;;;6.60;3.10;;;;;;;15.00;50.79;99680.67;79518;1295;3052992;-61
2024/04/10 02:31:56;;;;;;;10.00;2.80;;;;;;;15.11;50.85;99684.43;80771;1295;3011330;-63
2024/04/10 02:34:23;;;;;;;6.00;2.80;;;;;;;15.21;50.41;99690.00;80377;1292;3013439;-61
2024/04/10 02:36:51;;;;;;;7.70;2.90;;;;;;;15.22;50.53;99694.14;79500;1291;3049800;-62
2024/04/10 02:39:17;;;;;;;11.90;3.40;;;;;;;15.27;50.44;99692.02;80286;1294;3018893;-61
2024/04/10 02:41:44;;;;;;;8.40;3.30;;;;;;;15.35;50.02;99692.10;80256;1295;3013173;-62
2024/04/10 02:44:12;;;;;;;6.40;3.40;;;;;;;15.44;49.90;99694.59;78507;1295;3026503;-61
2024/04/10 02:46:38;;;;;;;8.80;2.80;;;;;;;15.54;49.48;99699.48;79737;1292;3012957;-61
2024/04/10 02:49:05;;;;;;;6.00;3.10;;;;;;;15.60;49.56;99702.51;79708;1292;3011615;-62
2024/04/10 02:51:33;;;;;;;12.20;3.10;;;;;;;15.67;49.08;99710.35;78436;1291;3025718;-59
2024/04/10 02:53:59;;;;;;;6.00;2.90;;;;;;;15.59;49.22;99716.38;79727;1292;3013356;-60
2024/04/10 02:56:26;;;;;;;8.20;3.30;;;;;;;15.44;49.44;99718.25;79791;1295;3013061;-57
2024/04/10 02:58:54;;;;;;;10.60;3.10;;;;;;;15.34;49.68;99715.66;78484;1295;3028441;-59
2024/04/10 03:01:21;;;;;;;5.70;3.10;;;;;;;15.39;49.76;99714.08;79858;1292;3013074;-58
2024/04/10 03:03:48;;;;;;;9.50;3.30;;;;;;;15.40;49.78;99710.08;79746;1293;3011934;-58
2024/04/10 03:06:16;;;;;;;9.10;3.90;;;;;;;15.47;49.50;99713.65;78522;1294;3026460;-59
2024/04/10 03:08:43;;;;;;;11.40;3.90;;;;;;;15.58;49.38;99709.79;79602;1295;3012842;-59
2024/04/10 03:11:10;;;;;;;11.60;3.70;;;;;;;15.66;49.07;99707.05;79949;1295;3011620;-59
2024/04/10 03:13:38;;;;;;;8.30;3.50;;;;;;;15.74;48.90;99705.00;78302;1295;3025642;-60
2024/04/10 03:16:06;;;;;;;10.60;3.50;;;;;;;15.83;48.66;99703.30;79528;1294;3011869;-60
2024/04/10 03:18:33;;;;;;;9.50;3.50;;;;;;;15.91;48.49;99703.01;79732;1291;3011776;-61
2024/04/10 03:21:01;;;;;;;8.70;3.70;;;;;;;15.98;48.19;99701.23;78451;1292;3049783;-60
2024/04/10 03:23:28;;;;;;;9.60;3.90;;;;;;;16.06;48.16;99698.63;79720;1293;3013137;-59
2024/04/10 03:26:05;;;;;;;8.20;3.70;;;;;;;16.15;47.82;99699.89;79642;1292;3011622;-61
2024/04/10 03:28:33;;;;;;;9.60;3.40;;;;;;;16.24;47.44;99701.08;78451;1295;3052976;-64
2024/04/10 03:31:03;;;;;;;7.90;3.50;;;;;;;16.33;47.39;99708.20;79768;1292;3019064;-60
2024/04/10 03:33:29;;;;;;;6.80;3.70;;;;;;;16.39;47.22;99709.05;79697;1292;3011747;-61
2024/04/10 03:35:58;;;;;;;6.10;3.70;;;;;;;16.45;46.97;99709.99;78365;1295;3049497;-60
2024/04/10 03:38:24;;;;;;;7.70;3.80;;;;;;;16.50;47.03;99709.65;79604;1296;3013005;-61
2024/04/10 03:40:51;;;;;;;10.00;4.20;;;;;;;16.53;47.07;99707.92;79920;1292;3011585;-60
2024/04/10 03:43:19;;;;;;;6.90;3.60;;;;;;;16.57;46.86;99710.09;78382;1295;3053257;-57
2024/04/10 03:45:49;;;;;;;6.40;4.20;;;;;;;16.63;46.59;99708.77;79867;1291;3012795;-59
2024/04/10 03:48:18;;;;;;;7.70;4.20;;;;;;;16.66;46.70;99711.14;79208;1295;3011868;-60
2024/04/10 03:50:44;;;;;;;10.10;5.70;;;;;;;16.67;46.31;99713.85;79691;1295;3013513;-59
2024/04/10 03:53:11;;;;;;;10.10;4.80;;;;;;;16.69;46.49;99715.67;79842;1292;3013182;-58
2024/04/10 03:55:39;;;;;;;6.00;3.40;;;;;;;16.68;46.30;99716.65;78476;1291;3025854;-59
2024/04/10 03:58:05;;;;;;;7.60;3.30;;;;;;;16.48;46.50;99720.74;79719;1297;3018738;-57
2024/04/10 04:00:34;;;;;;;9.60;3.60;;;;;;;16.29;47.03;99723.31;79690;1295;3012809;-59
2024/04/10 04:03:03;;;;;;;9.80;3.50;;;;;;;16.18;47.49;99728.81;78541;1292;3052439;-58
2024/04/10 04:05:30;;;;;;;9.30;4.20;;;;;;;16.07;47.68;99726.78;79781;1294;3014644;-59
2024/04/10 04:07:56;;;;;;;10.70;4.10;;;;;;;15.91;48.32;99729.52;79699;1294;3011978;-59
2024/04/10 04:10:24;;;;;;;17.50;4.80;;;;;;;15.81;48.46;99731.33;78481;1295;3050247;-59
2024/04/10 04:12:51;;;;;;;11.00;3.90;;;;;;;15.62;48.81;99732.06;79811;1302;3012647;-61
2024/04/10 04:15:18;;;;;;;10.40;4.30;;;;;;;15.57;49.19;99733.52;79599;1292;3011909;-60
2024/04/10 04:17:46;;;;;;;11.30;4.00;;;;;;;15.39;49.69;99736.42;78364;1294;3028581;-58
2024/04/10 04:20:13;;;;;;;14.90;4.60;;;;;;;15.35;49.99;99732.50;79827;1291;3013099;-60
2024/04/10 04:22:39;;;;;;;9.70;4.40;;;;;;;15.27;50.17;99733.29;79607;1294;3011728;-60
2024/04/10 04:25:07;;;;;;;10.40;5.00;;;;;;;15.20;50.33;99735.41;78817;1295;3025706;-61
2024/04/10 04:27:34;;;;;;;12.00;3.80;;;;;;;15.22;50.58;99733.69;79836;1294;3012891;-61
2024/04/10 04:30:01;;;;;;;9.10;3.40;;;;;;;15.32;50.14;99734.50;79623;1295;3013727;-61
2024/04/10 04:32:31;;;;;;;8.10;4.00;;;;;;;15.38;49.86;99735.81;78530;1294;3026301;-61
2024/04/10 04:34:59;;;;;;;10.20;3.80;;;;;;;15.36;50.21;99738.27;79872;1295;3013099;-58
2024/04/10 04:37:28;;;;;;;11.20;3.90;;;;;;;15.44;50.01;99742.98;79171;1291;3013274;-59
2024/04/10 04:39:54;;;;;;;12.20;4.50;;;;;;;15.56;49.51;99745.94;79861;1294;3013335;-59
2024/04/10 04:42:21;;;;;;;13.90;4.50;;;;;;;15.60;49.78;99748.13;80003;1295;3011867;-59
2024/04/10 04:44:49;;;;;;;12.60;4.60;;;;;;;15.52;50.09;99747.48;78611;1295;3027661;-60
2024/04/10 04:47:17;;;;;;;13.90;4.30;;;;;;;15.38;50.43;99747.63;80053;1294;3013745;-60
2024/04/10 04:49:44;;;;;;;13.20;4.60;;;;;;;15.41;50.58;99750.61;79724;1292;3011991;-61
2024/04/10 04:52:12;;;;;;;23.10;4.90;;;;;;;15.52;50.17;99752.09;78492;1292;3049539;-60
2024/04/10 04:54:38;;;;;;;13.90;4.40;;;;;;;15.59;50.29;99753.46;80209;1294;3018458;-60
2024/04/10 04:57:09;;;;;;;14.20;5.10;;;;;;;15.69;49.99;99756.24;79856;1295;3012806;-60
2024/04/10 04:59:38;;;;;;;23.10;5.20;;;;;;;15.83;50.06;99758.40;78625;1293;3051246;-60
2024/04/10 05:02:04;;;;;;;21.10;6.20;;;;;;;15.90;50.46;99764.52;79864;1295;3013676;-59
2024/04/10 05:07:18;;;;;;;23.70;5.70;;;;;;;15.76;51.19;99772.84;78443;1296;3049227;-59
2024/04/10 05:09:49;;;;;;;24.40;5.90;;;;;;;15.73;51.05;99768.84;79720;1295;3018136;-58
2024/04/10 05:12:17;;;;;;;18.40;5.80;;;;;;;15.83;51.14;99768.48;78434;1295;3051953;-64
2024/04/10 05:14:53;;;;;;;18.10;6.30;;;;;;;15.92;51.01;99765.47;80009;1292;3013522;-59
2024/04/10 05:17:21;;;;;;;30.70;6.70;;;;;;;15.94;51.18;99769.35;78483;1295;3051643;-59
2024/04/10 05:19:47;;;;;;;36.00;6.90;;;;;;;15.93;51.36;99771.70;80058;1295;3018797;-59
2024/04/10 05:22:14;;;;;;;28.20;6.90;;;;;;;16.01;51.24;99768.66;79652;1292;3011641;-59
2024/04/10 05:24:42;;;;;;;29.40;6.70;;;;;;;16.14;50.73;99766.94;78410;1295;3026758;-59
2024/04/10 05:27:10;;;;;;;24.70;6.10;;;;;;;16.29;50.26;99765.17;79794;1295;3013189;-62
2024/04/10 05:29:37;;;;;;;21.90;7.00;;;;;;;16.40;49.91;99761.80;80065;1293;3011629;-60
2024/04/10 05:32:05;;;;;;;47.20;7.70;;;;;;;16.50;50.02;99763.00;78622;1295;3052193;-61
2024/04/10 05:34:32;;;;;;;27.80;6.50;;;;;;;16.61;49.93;99767.77;79756;1292;3013934;-59
2024/04/10 05:36:59;;;;;;;31.80;7.10;;;;;;;16.73;49.48;99768.41;79868;1292;3011629;-61
2024/04/10 05:39:27;;;;;;;19.90;6.90;;;;;;;16.84;49.28;99773.13;78462;1297;3050174;-61
2024/04/10 05:41:54;;;;;;;16.30;5.60;;;;;;;16.90;48.68;99779.79;79882;1304;3019050;-62
2024/04/10 05:44:21;;;;;;;20.30;6.00;;;;;;;17.00;48.13;99781.65;80141;1292;3011401;-61
2024/04/10 05:46:49;;;;;;;35.50;7.30;;;;;;;17.09;47.84;99783.53;78554;1295;3052584;-61
2024/04/10 05:49:16;;;;;;;19.00;5.80;;;;;;;17.17;47.94;99791.73;80272;1295;3018446;-64
2024/04/10 05:51:43;;;;;;;14.10;5.40;;;;;;;17.19;47.40;99791.16;80262;1293;3012968;-61
2024/04/10 05:54:10;;;;;;;21.70;4.90;;;;;;;17.25;46.86;99793.55;78508;1295;3028113;-58
2024/04/10 05:56:37;;;;;;;17.90;5.10;;;;;;;17.31;46.09;99792.20;79985;1295;3013467;-59
2024/04/10 05:59:05;;;;;;;15.50;4.80;;;;;;;17.38;46.20;99789.80;79515;1295;3011642;-59
2024/04/10 06:01:33;;;;;;;17.30;5.10;;;;;;;17.52;46.31;99787.06;78506;1295;3051994;-59
2024/04/10 06:04:00;;;;;;;17.20;4.80;;;;;;;17.65;45.52;99785.20;80156;1291;3012873;-60
2024/04/10 06:06:27;;;;;;;15.80;4.10;;;;;;;17.72;43.75;99783.80;79992;1291;3011808;-60
2024/04/10 06:08:55;;;;;;;15.80;4.50;;;;;;;17.76;42.93;99781.30;79112;1292;3028167;-64
2024/04/10 06:11:27;;;;;;;10.00;3.90;;;;;;;17.77;42.52;99782.92;79978;1292;3012950;-58
2024/04/10 06:13:57;;;;;;;10.20;3.80;;;;;;;17.83;42.18;99788.12;79089;1292;3068521;-59
2024/04/10 06:16:23;;;;;;;13.10;3.80;;;;;;;17.86;41.70;99786.96;80366;1292;3011949;-60
2024/04/10 06:18:50;;;;;;;15.40;3.60;;;;;;;17.98;41.70;99782.61;80033;1293;3011892;-59
2024/04/10 06:21:18;;;;;;;14.00;3.80;;;;;;;18.07;41.39;99784.16;78557;1294;3052043;-60
2024/04/10 06:23:45;;;;;;;21.70;4.10;;;;;;;18.19;41.57;99778.66;79855;1292;3012801;-62
2024/04/10 06:26:11;;;;;;;15.70;4.00;;;;;;;18.16;41.62;99781.77;79579;1295;3012149;-59
2024/04/10 06:28:39;;;;;;;12.20;4.00;;;;;;;18.28;41.98;99777.55;78384;1295;3028690;-59
2024/04/10 06:31:07;;;;;;;19.80;4.40;;;;;;;18.43;42.20;99775.02;79742;1294;3012966;-59
2024/04/10 06:33:34;;;;;;;13.60;4.40;;;;;;;18.53;42.11;99779.59;80358;1293;3013984;-61
2024/04/10 06:36:04;;;;;;;10.90;4.10;;;;;;;18.66;42.01;99774.23;78701;1292;3053321;-60
2024/04/10 06:38:31;;;;;;;14.30;4.10;;;;;;;18.80;42.22;99777.54;79959;1292;3011913;-61
2024/04/10 06:41:01;;;;;;;21.90;4.90;;;;;;;18.95;41.71;99778.20;79673;1294;3011353;-59
2024/04/10 06:43:28;;;;;;;13.00;4.20;;;;;;;19.06;41.36;99783.92;79768;1295;3039722;-60
2024/04/10 06:46:07;;;;;;;16.80;4.70;;;;;;;19.16;41.25;99782.45;80128;1292;3013672;-61
2024/04/10 06:48:35;;;;;;;11.00;4.20;;;;;;;19.26;41.40;99782.83;78742;1294;3058340;-59
2024/04/10 06:51:05;;;;;;;21.40;4.70;;;;;;;19.39;41.21;99781.23;79691;1291;3012991;-60
2024/04/10 06:53:32;;;;;;;16.40;4.30;;;;;;;19.51;41.02;99782.44;79638;1293;3011641;-59
2024/04/10 06:56:01;;;;;;;22.00;4.30;;;;;;;19.63;41.21;99784.55;78513;1295;3052820;-58
2024/04/10 06:58:29;;;;;;;14.70;4.10;;;;;;;19.75;41.04;99788.02;79747;1295;3012912;-61
2024/04/10 07:00:59;;;;;;;20.30;4.40;;;;;;;19.83;40.10;99787.56;79915;1295;3011476;-63
2024/04/10 07:03:28;;;;;;;15.10;4.90;;;;;;;19.90;40.13;99789.86;78637;1295;3056404;-64
2024/04/10 07:06:14;;;;;;;10.60;3.80;;;;;;;19.97;40.24;99792.45;79820;1293;3011566;-61
2024/04/10 07:08:46;;;;;;;8.10;3.80;;;;;;;20.12;39.97;99792.56;79022;1292;3050170;-60
2024/04/10 07:11:15;;;;;;;9.90;4.10;;;;;;;20.26;39.65;99787.89;79911;1295;3011582;-60
2024/04/10 07:13:52;;;;;;;18.30;4.10;;;;;;;20.38;39.32;99785.64;78737;1292;3052991;-61
2024/04/10 07:16:22;;;;;;;20.60;4.60;;;;;;;20.47;38.84;99781.56;78374;1291;3070138;-61
2024/04/10 07:18:48;;;;;;;15.20;4.30;;;;;;;20.57;39.09;99783.30;79739;1292;3011634;-62
2024/04/10 07:21:16;;;;;;;27.40;5.00;;;;;;;20.69;39.08;99781.09;79758;1291;3011567;-61
2024/04/10 07:23:46;;;;;;;9.30;3.70;;;;;;;20.82;38.65;99780.77;78599;1292;3053316;-62
2024/04/10 07:26:19;;;;;;;17.10;4.10;;;;;;;20.95;38.42;99778.72;79850;1295;3012814;-62
2024/04/10 07:28:52;;;;;;;;;;;;;;;21.06;37.61;99774.98;78636;1294;3053265;-62
2024/04/10 07:31:20;;;;;;;12.10;3.80;;;;;;;21.11;37.60;99773.86;79842;1295;3011616;-61
2024/04/10 07:33:49;;;;;;;16.40;3.50;;;;;;;21.21;37.71;99768.96;78678;1294;3068235;-61
2024/04/10 07:36:20;;;;;;;7.20;3.70;;;;;;;21.31;37.34;99772.98;80003;1291;3014799;-61
2024/04/10 07:38:48;;;;;;;11.30;3.60;;;;;;;21.42;37.23;99769.95;78501;1294;3051762;-61
2024/04/10 07:41:15;;;;;;;19.70;3.90;;;;;;;21.52;36.66;99769.70;79785;1292;3013011;-61
2024/04/10 07:43:41;;;;;;;16.70;4.40;;;;;;;21.55;36.67;99767.25;80122;1291;3011753;-62
2024/04/10 07:46:13;;;;;;;8.50;3.50;;;;;;;21.64;36.96;99766.88;78650;1295;3026845;-62
2024/04/10 07:48:41;;;;;;;21.80;4.30;;;;;;;21.72;36.27;99766.61;79794;1294;3011677;-62
2024/04/10 07:51:10;;;;;;;10.80;4.20;;;;;;;21.77;36.09;99765.13;78394;1295;3028822;-64
2024/04/10 07:53:37;;;;;;;14.20;3.60;;;;;;;21.81;36.00;99764.02;79792;1292;3011621;-63
2024/04/10 07:56:06;;;;;;;19.00;4.40;;;;;;;21.90;36.19;99759.55;79865;1291;3011516;-61
2024/04/10 07:58:36;;;;;;;9.80;4.00;;;;;;;21.92;35.69;99754.54;78681;1295;3050568;-61
2024/04/10 08:01:03;;;;;;;17.50;5.00;;;;;;;22.08;35.82;99752.27;80203;1294;3011615;-63
2024/04/10 08:03:30;;;;;;;11.70;4.30;;;;;;;22.19;35.36;99750.79;79910;1291;3011592;-65
2024/04/10 08:07:18;;;;;;;16.50;4.60;;;;;;;22.38;35.25;99752.59;80599;1298;3012936;-63
2024/04/10 08:09:45;;;;;;;8.20;3.90;;;;;;;22.53;35.38;99750.45;79280;1299;3015074;-63
2024/04/10 08:12:12;;;;;;;13.60;4.10;;;;;;;22.69;35.07;99750.20;79402;1301;3011654;-63
2024/04/10 08:14:41;;;;;;;12.80;4.70;;;;;;;22.79;34.55;99748.45;77877;1303;3052696;-63
2024/04/10 08:17:07;;;;;;;10.60;4.20;;;;;;;22.82;34.27;99747.08;79309;1300;3012592;-63
2024/04/10 08:19:34;;;;;;;15.90;5.40;;;;;;;22.83;34.33;99743.20;78856;1300;3013620;-63
2024/04/10 08:22:02;;;;;;;17.30;4.50;;;;;;;22.90;34.39;99738.52;78087;1301;3048040;-63
2024/04/10 08:24:28;;;;;;;14.70;4.70;;;;;;;22.96;34.43;99740.59;79421;1301;3013326;-62
2024/04/10 08:26:55;;;;;;;13.90;4.90;;;;;;;23.03;34.30;99737.98;79182;1298;3011724;-63
2024/04/10 08:29:23;;;;;;;25.60;5.00;;;;;;;23.13;34.46;99738.73;78032;1301;3025907;-63
2024/04/10 08:31:50;;;;;;;20.80;6.10;;;;;;;23.22;34.12;99734.33;79103;1299;3012975;-63
2024/04/10 08:34:16;;;;;;;15.90;5.10;;;;;;;23.31;33.94;99729.48;79137;1301;3013515;-63
2024/04/10 08:36:44;;;;;;;16.80;5.10;;;;;;;23.37;33.85;99728.95;77800;1301;3026842;-66
2024/04/10 08:39:11;;;;;;;19.70;6.10;;;;;;;23.41;33.91;99733.16;79196;1297;3012857;-62
2024/04/10 08:41:39;;;;;;;17.40;6.10;;;;;;;23.55;34.00;99732.73;79248;1297;3013650;-62
2024/04/10 08:44:07;;;;;;;16.70;5.90;;;;;;;23.68;33.61;99729.86;78500;1296;3053751;-66
2024/04/10 08:46:34;;;;;;;19.50;6.40;;;;;;;23.82;33.72;99730.21;79983;1298;3012618;-62
2024/04/10 08:49:01;;;;;;;17.80;5.70;;;;;;;23.97;33.52;99723.09;79281;1298;3012930;-62
2024/04/10 08:51:29;;;;;;;13.90;5.70;;;;;;;24.08;33.49;99721.21;78253;1297;3049828;-63
2024/04/10 08:53:55;;;;;;;18.80;6.20;;;;;;;24.20;33.30;99720.80;79362;1295;3013379;-63
2024/04/10 08:56:22;;;;;;;21.20;6.60;;;;;;;24.23;33.02;99721.52;79546;1301;3011786;-58
2024/04/10 08:58:50;;;;;;;17.60;6.10;;;;;;;24.33;33.07;99722.38;78334;1296;3028916;-61
2024/04/10 09:01:37;;;;;;;22.70;6.20;;;;;;;24.41;33.00;99722.46;79643;1295;3013068;-62
2024/04/10 09:04:10;;;;;;;16.50;5.60;;;;;;;24.58;32.88;99721.78;78381;1300;3056974;-61
2024/04/10 09:06:37;;;;;;;15.50;5.30;;;;;;;24.71;32.41;99720.14;79433;1296;3011868;-64
2024/04/10 09:09:08;;;;;;;11.30;4.80;;;;;;;24.81;31.81;99720.57;78456;1298;3053470;-60
2024/04/10 09:11:37;;;;;;;20.60;4.60;;;;;;;24.88;31.52;99719.41;79632;1297;3011665;-61
2024/04/10 09:14:06;;;;;;;12.30;4.70;;;;;;;25.02;31.61;99721.04;78101;1300;3051952;-63
2024/04/10 09:16:33;;;;;;;13.50;4.70;;;;;;;25.14;31.22;99718.21;79428;1296;3013428;-64
2024/04/10 09:19:10;;;;;;;13.20;3.40;;;;;;;25.25;30.80;99715.84;79506;1298;3011933;-63
2024/04/10 09:21:42;;;;;;;9.60;3.70;;;;;;;25.29;30.09;99714.58;78021;1295;3056403;-62
2024/04/10 09:24:09;;;;;;;9.90;3.50;;;;;;;25.34;29.85;99715.70;79179;1301;3011580;-61
2024/04/10 09:26:48;;;;;;;9.80;3.20;;;;;;;25.39;29.72;99711.86;78384;1297;3028255;-61
2024/04/10 09:29:19;;;;;;;6.60;3.70;;;;;;;25.52;29.92;99705.34;78323;1301;3051190;-59
2024/04/10 09:31:48;;;;;;;7.30;3.40;;;;;;;25.53;29.69;99706.64;79468;1300;3013484;-60
2024/04/10 09:34:20;;;;;;;11.10;4.40;;;;;;;25.58;29.23;99704.19;78241;1301;3052406;-60
2024/04/10 09:36:47;;;;;;;8.30;3.70;;;;;;;25.66;29.03;99704.76;79896;1298;3013039;-60
2024/04/10 09:39:22;;;;;;;13.10;4.20;;;;;;;25.56;28.94;99699.41;78527;1296;3026263;-66
2024/04/10 09:41:57;;;;;;;10.30;4.10;;;;;;;25.58;29.01;99696.66;78899;1295;3011748;-62
2024/04/10 09:44:31;;;;;;;14.40;4.70;;;;;;;25.73;29.06;99699.30;78694;1298;3011886;-61
2024/04/10 09:46:58;;;;;;;10.70;4.40;;;;;;;25.89;29.04;99701.98;79834;1301;3011990;-61
2024/04/10 09:49:35;;;;;;;12.60;5.10;;;;;;;26.07;29.02;99697.06;77944;1299;3048164;-60
2024/04/10 09:52:03;;;;;;;9.70;3.90;;;;;;;26.17;28.59;99706.84;78047;1297;3052206;-60
2024/04/10 09:54:30;;;;;;;8.40;3.30;;;;;;;26.27;28.26;99699.30;79487;1298;3013221;-63
2024/04/10 09:56:57;;;;;;;7.80;3.50;;;;;;;26.29;27.61;99702.39;79566;1301;3011574;-61
2024/04/10 09:59:25;;;;;;;7.40;4.10;;;;;;;26.34;27.81;99698.08;77947;1300;3029336;-63
2024/04/10 10:01:55;;;;;;;14.60;4.60;;;;;;;26.33;27.81;99698.81;79301;1296;3021355;-60
2024/04/10 10:04:23;;;;;;;9.40;4.00;;;;;;;26.36;27.85;99695.83;78079;1300;3050195;-62
2024/04/10 10:06:59;;;;;;;6.50;3.50;;;;;;;26.42;28.00;99695.44;79386;1298;3013478;-62
2024/04/10 10:09:27;;;;;;;6.00;3.30;;;;;;;26.45;27.83;99695.23;78162;1300;3053247;-60
2024/04/10 10:11:58;;;;;;;8.10;3.60;;;;;;;26.53;27.81;99694.31;79359;1300;3013247;-61
2024/04/10 10:14:26;;;;;;;9.50;2.80;;;;;;;26.58;27.80;99696.51;78137;1301;3052066;-62
2024/04/10 10:17:04;;;;;;;10.80;3.40;;;;;;;26.67;27.63;99701.59;79223;1298;3018807;-61
2024/04/10 10:19:36;;;;;;;5.80;2.80;;;;;;;26.79;27.51;99696.83;78068;1300;3052903;-59
2024/04/10 10:22:04;;;;;;;9.10;3.10;;;;;;;26.84;27.49;99702.71;79252;1295;3011547;-60
2024/04/10 10:24:32;;;;;;;8.50;2.70;;;;;;;26.82;27.11;99700.59;77995;1300;3052963;-60
2024/04/10 10:26:59;;;;;;;4.90;2.90;;;;;;;26.91;27.22;99702.73;79326;1297;3013487;-61
2024/04/10 10:29:27;;;;;;;13.80;4.10;;;;;;;27.00;27.18;99705.71;79310;1297;3011777;-61
2024/04/10 10:32:05;;;;;;;9.10;3.90;;;;;;;27.08;27.15;99707.77;78552;1296;3057327;-61
2024/04/10 10:34:33;;;;;;;11.10;3.20;;;;;;;27.12;26.87;99706.17;78546;1298;3049624;-62
2024/04/10 10:37:06;;;;;;;9.60;3.10;;;;;;;27.00;26.73;99703.55;79289;1297;3012918;-62
2024/04/10 10:39:34;;;;;;;11.10;2.90;;;;;;;27.06;26.62;99704.94;78265;1300;3052088;-64
2024/04/10 10:42:05;;;;;;;8.70;2.60;;;;;;;27.06;26.50;99703.98;80350;1296;3013285;-62
2024/04/10 10:44:34;;;;;;;5.10;2.70;;;;;;;26.99;26.82;99703.80;78432;1298;3050856;-63
2024/04/10 10:47:06;;;;;;;7.10;2.60;;;;;;;27.26;26.72;99704.80;79485;1297;3013329;-63
2024/04/10 10:49:36;;;;;;;9.90;2.80;;;;;;;27.45;26.28;99708.69;77987;1296;3053786;-63
2024/04/10 10:52:03;;;;;;;8.30;2.50;;;;;;;27.59;26.36;99703.95;79852;1298;3013101;-64
2024/04/10 10:54:29;;;;;;;5.10;2.50;;;;;;;27.60;26.03;99706.04;79619;1298;3011557;-62
2024/04/10 10:57:04;;;;;;;9.30;2.70;;;;;;;27.51;26.26;99701.59;78056;1300;3068460;-63
2024/04/10 10:59:33;;;;;;;8.90;2.70;;;;;;;27.40;26.28;99704.08;78799;1297;3011583;-64
2024/04/10 11:02:00;;;;;;;6.40;2.90;;;;;;;27.45;26.22;99701.80;79391;1296;3013565;-63
2024/04/10 11:04:28;;;;;;;6.10;2.50;;;;;;;27.48;26.37;99700.52;79212;1296;3012357;-63
2024/04/10 11:07:05;;;;;;;5.80;2.90;;;;;;;27.54;26.32;99696.50;78074;1296;3052731;-63
2024/04/10 11:09:33;;;;;;;7.50;3.00;;;;;;;27.72;26.04;99693.36;78222;1300;3051108;-62
2024/04/10 11:12:02;;;;;;;9.70;2.90;;;;;;;27.84;25.97;99690.92;79594;1301;3013789;-63
2024/04/10 11:14:28;;;;;;;5.90;2.70;;;;;;;27.80;25.95;99695.67;79203;1298;3013550;-61
2024/04/10 11:16:58;;;;;;;9.00;2.80;;;;;;;27.78;26.28;99697.71;78359;1301;3052214;-63
2024/04/10 11:19:25;;;;;;;5.00;3.00;;;;;;;27.88;26.15;99694.27;79565;1296;3013223;-63
2024/04/10 11:21:51;;;;;;;9.10;3.20;;;;;;;27.93;26.27;99689.38;79940;1296;3011898;-63
2024/04/10 11:24:22;;;;;;;5.20;2.70;;;;;;;27.98;25.83;99692.66;77940;1300;3051373;-63